createdAt,value
2018-03-03T00:03:35.424Z,-2.20
2018-03-03T00:08:31.254Z,-2.10
2018-03-03T00:13:25.582Z,-2.10
2018-03-03T00:18:21.078Z,-2.10
2018-03-03T00:23:15.476Z,-2.20
2018-03-03T00:28:09.814Z,-2.20
2018-03-03T00:33:04.853Z,-2.10
2018-03-03T00:37:59.296Z,-2.10
2018-03-03T00:42:53.735Z,-2.10
2018-03-03T00:47:48.852Z,-2.00
2018-03-03T00:52:44.042Z,-1.90
2018-03-03T00:57:38.577Z,-1.90
2018-03-03T01:02:33.695Z,-2.10
2018-03-03T01:07:28.074Z,-2.10
2018-03-03T01:12:22.879Z,-2.10
2018-03-03T01:17:17.273Z,-2.00
2018-03-03T01:22:11.603Z,-2.00
2018-03-03T01:27:06.141Z,-1.90
2018-03-03T01:32:01.528Z,-2.00
2018-03-03T01:36:55.924Z,-2.00
2018-03-03T01:41:50.486Z,-2.00
2018-03-03T01:46:44.879Z,-2.00
2018-03-03T01:51:43.885Z,-2.00
2018-03-03T01:56:39.224Z,-2.00
2018-03-03T02:01:33.585Z,-2.00
2018-03-03T02:06:28.135Z,-2.00
2018-03-03T02:11:22.491Z,-2.00
2018-03-03T02:16:16.831Z,-1.90
2018-03-03T02:21:11.283Z,-1.90
2018-03-03T02:26:05.611Z,-1.90
2018-03-03T02:31:00.155Z,-1.80
2018-03-03T02:35:54.745Z,-1.80
2018-03-03T02:40:50.029Z,-1.70
2018-03-03T02:45:44.412Z,-1.70
2018-03-03T02:50:38.772Z,-1.70
2018-03-03T02:55:33.888Z,-1.70
2018-03-03T03:00:28.995Z,-1.70
2018-03-03T03:05:24.095Z,-1.70
2018-03-03T03:10:18.613Z,-1.70
2018-03-03T03:15:12.954Z,-1.70
2018-03-03T03:20:07.504Z,-1.70
2018-03-03T03:25:01.942Z,-1.70
2018-03-03T03:29:57.052Z,-1.70
2018-03-03T03:34:52.179Z,-1.70
2018-03-03T03:39:47.287Z,-1.60
2018-03-03T03:44:41.749Z,-1.60
2018-03-03T03:49:35.881Z,-1.60
2018-03-03T03:54:31.206Z,-1.60
2018-03-03T03:59:25.521Z,-1.60
2018-03-03T04:04:20.646Z,-1.60
2018-03-03T04:09:15.714Z,-1.60
2018-03-03T04:14:10.049Z,-1.60
2018-03-03T04:19:05.881Z,-1.60
2018-03-03T04:23:59.995Z,-1.60
2018-03-03T04:28:54.927Z,-1.50
2018-03-03T04:33:49.840Z,-1.40
2018-03-03T04:38:44.709Z,-1.30
2018-03-03T04:43:38.881Z,-1.40
2018-03-03T04:48:33.034Z,-1.30
2018-03-03T04:53:28.178Z,-1.10
2018-03-03T05:14:21.944Z,-1.10
2018-03-03T05:19:21.647Z,-1.00
2018-03-03T05:40:29.785Z,-1.00
2018-03-03T05:45:27.926Z,-1.00
2018-03-03T06:06:29.025Z,-1.00
2018-03-03T06:11:23.345Z,-1.00
2018-03-03T06:16:18.051Z,-1.00
2018-03-03T06:21:12.414Z,-0.90
2018-03-03T06:26:06.740Z,-0.90
2018-03-03T06:31:01.078Z,-0.80
2018-03-03T06:35:55.442Z,-0.80
2018-03-03T06:40:49.789Z,-0.80
2018-03-03T06:45:44.148Z,-0.80
2018-03-03T06:50:38.683Z,-0.70
2018-03-03T06:55:32.973Z,-0.60
2018-03-03T07:00:27.307Z,-0.60
2018-03-03T07:05:23.121Z,-0.60
2018-03-03T07:10:17.953Z,-0.50
2018-03-03T07:15:23.749Z,-0.30
2018-03-03T07:20:21.553Z,-0.30
2018-03-03T07:25:16.042Z,-0.30
2018-03-03T07:30:10.394Z,-0.20
2018-03-03T07:35:05.007Z,-0.20
2018-03-03T07:39:59.523Z,-0.20
2018-03-03T07:44:53.827Z,-0.20
2018-03-03T07:49:47.968Z,-0.10
2018-03-03T07:54:42.336Z,0.00
2018-03-03T07:59:37.661Z,0.00
2018-03-03T08:04:31.839Z,-0.10
2018-03-03T08:09:26.459Z,0.00
2018-03-03T08:14:21.666Z,0.20
2018-03-03T08:19:16.194Z,0.20
2018-03-03T08:24:10.495Z,0.30
2018-03-03T08:29:04.800Z,0.50
2018-03-03T08:34:00.210Z,0.70
2018-03-03T08:38:55.313Z,1.00
2018-03-03T08:43:49.739Z,1.00
2018-03-03T08:48:44.307Z,1.60
2018-03-03T08:53:38.622Z,1.80
2018-03-03T08:58:35.263Z,2.00
2018-03-03T09:08:28.875Z,2.20
2018-03-03T09:13:23.368Z,2.30
2018-03-03T09:18:17.979Z,2.10
2018-03-03T09:23:12.277Z,2.00
2018-03-03T09:28:06.667Z,2.00
2018-03-03T09:33:01.919Z,2.40
2018-03-03T09:37:56.598Z,2.40
2018-03-03T09:42:51.987Z,4.10
2018-03-03T09:47:46.618Z,4.10
2018-03-03T09:52:42.750Z,5.70
2018-03-03T09:57:37.968Z,6.70
2018-03-03T10:02:32.712Z,6.70
2018-03-03T10:07:27.981Z,5.50
2018-03-03T10:12:22.855Z,5.50
2018-03-03T10:17:17.307Z,5.30
2018-03-03T10:22:12.073Z,5.20
2018-03-03T10:27:06.981Z,4.60
2018-03-03T10:32:01.299Z,4.60
2018-03-03T10:36:56.211Z,4.30
2018-03-03T10:41:50.782Z,4.30
2018-03-03T10:46:45.092Z,4.10
2018-03-03T10:51:39.226Z,3.90
2018-03-03T10:56:34.306Z,3.50
2018-03-03T11:01:29.001Z,3.40
2018-03-03T11:06:24.151Z,3.50
2018-03-03T11:11:18.508Z,3.60
2018-03-03T11:16:12.839Z,3.60
2018-03-03T11:21:07.655Z,3.60
2018-03-03T11:26:02.950Z,3.20
2018-03-03T11:30:57.679Z,3.10
2018-03-03T11:35:52.290Z,2.80
2018-03-03T11:40:47.137Z,2.60
2018-03-03T11:45:42.201Z,2.40
2018-03-03T11:50:36.570Z,2.30
2018-03-03T11:55:31.638Z,2.70
2018-03-03T12:00:26.021Z,2.70
2018-03-03T12:05:20.744Z,2.60
2018-03-03T12:10:15.440Z,2.60
2018-03-03T12:15:10.085Z,2.50
2018-03-03T12:20:04.463Z,2.50
2018-03-03T12:24:58.879Z,2.70
2018-03-03T12:29:53.575Z,3.00
2018-03-03T12:34:48.651Z,3.00
2018-03-03T12:39:43.880Z,3.30
2018-03-03T12:44:38.967Z,3.20
2018-03-03T12:49:33.646Z,3.20
2018-03-03T12:54:28.145Z,3.00
2018-03-03T12:59:22.481Z,2.90
2018-03-03T13:04:17.882Z,3.20
2018-03-03T13:09:12.215Z,3.20
2018-03-03T13:14:06.928Z,3.40
2018-03-03T13:19:02.973Z,3.30
2018-03-03T13:23:57.291Z,3.30
2018-03-03T13:28:52.678Z,3.30
2018-03-03T13:33:47.889Z,3.30
2018-03-03T13:38:42.260Z,3.40
2018-03-03T13:43:37.552Z,3.70
2018-03-03T13:48:32.657Z,4.10
2018-03-03T13:53:27.436Z,4.10
2018-03-03T13:58:22.865Z,4.20
2018-03-03T14:03:17.726Z,4.30
2018-03-03T14:08:12.046Z,4.60
2018-03-03T14:13:07.343Z,4.70
2018-03-03T14:18:02.464Z,4.60
2018-03-03T14:22:57.176Z,4.60
2018-03-03T14:27:52.149Z,4.60
2018-03-03T14:32:46.496Z,4.60
2018-03-03T14:37:41.714Z,4.40
2018-03-03T14:42:36.182Z,4.40
2018-03-03T14:47:30.764Z,4.50
2018-03-03T14:52:25.099Z,4.50
2018-03-03T14:57:19.561Z,4.40
2018-03-03T15:02:15.449Z,4.20
2018-03-03T15:07:10.143Z,4.20
2018-03-03T15:12:04.459Z,4.10
2018-03-03T15:16:58.859Z,3.90
2018-03-03T15:21:53.192Z,3.90
2018-03-03T15:26:48.479Z,3.80
2018-03-03T15:31:45.070Z,3.70
2018-03-03T15:36:39.476Z,3.70
2018-03-03T15:41:34.856Z,3.60
2018-03-03T15:46:29.302Z,3.50
2018-03-03T15:51:23.662Z,3.50
2018-03-03T15:56:17.978Z,3.40
2018-03-03T16:01:12.334Z,3.30
2018-03-03T16:06:07.413Z,3.10
2018-03-03T16:11:01.723Z,3.10
2018-03-03T16:15:56.461Z,3.00
2018-03-03T16:20:51.016Z,2.90
2018-03-03T16:25:45.372Z,2.90
2018-03-03T16:30:39.971Z,2.80
2018-03-03T16:35:35.124Z,2.60
2018-03-03T16:40:29.589Z,2.50
2018-03-03T16:45:24.250Z,2.40
2018-03-03T16:50:18.691Z,2.30
2018-03-03T16:55:12.980Z,2.20
2018-03-03T17:00:07.369Z,2.00
2018-03-03T17:05:01.678Z,2.00
2018-03-03T17:09:56.434Z,1.80
2018-03-03T17:14:50.994Z,1.70
2018-03-03T17:19:46.136Z,1.50
2018-03-03T17:24:40.489Z,1.50
2018-03-03T17:29:35.090Z,1.40
2018-03-03T17:34:32.236Z,1.20
2018-03-03T17:39:27.392Z,1.10
2018-03-03T17:44:21.711Z,1.10
2018-03-03T17:49:16.098Z,1.20
2018-03-03T17:54:10.500Z,1.10
2018-03-03T17:59:04.733Z,1.10
2018-03-03T18:03:59.200Z,1.10
2018-03-03T18:08:53.585Z,1.20
2018-03-03T18:13:53.900Z,1.20
2018-03-03T18:18:48.456Z,1.20
2018-03-03T18:23:42.897Z,1.20
2018-03-03T18:28:37.627Z,1.20
2018-03-03T18:33:31.957Z,1.30
2018-03-03T18:38:26.868Z,1.40
2018-03-03T18:43:22.107Z,1.40
2018-03-03T18:48:16.437Z,1.30
2018-03-03T18:53:10.765Z,1.40
2018-03-03T18:58:06.569Z,1.30
2018-03-03T19:03:00.936Z,1.30
2018-03-03T19:07:55.631Z,1.20
2018-03-03T19:12:50.697Z,1.20
2018-03-03T19:17:45.050Z,1.20
2018-03-03T19:22:40.157Z,1.30
2018-03-03T19:27:34.546Z,1.30
2018-03-03T19:32:28.871Z,1.30
2018-03-03T19:37:23.960Z,1.30
2018-03-03T19:42:18.265Z,1.30
2018-03-03T19:47:12.698Z,1.30
2018-03-03T19:52:07.604Z,1.30
2018-03-03T19:57:02.739Z,1.20
2018-03-03T20:01:57.841Z,1.20
2018-03-03T20:06:52.921Z,1.20
2018-03-03T20:11:47.329Z,1.20
2018-03-03T20:16:41.631Z,1.30
2018-03-03T20:21:35.946Z,1.30
2018-03-03T20:26:30.277Z,1.40
2018-03-03T20:31:25.377Z,1.30
2018-03-03T20:36:19.705Z,1.30
2018-03-03T20:41:14.785Z,1.10
2018-03-03T20:46:09.102Z,1.10
2018-03-03T20:51:03.471Z,1.10
2018-03-03T20:55:57.791Z,1.10
2018-03-03T21:00:52.115Z,1.10
2018-03-03T21:05:47.394Z,1.10
2018-03-03T21:10:41.515Z,1.10
2018-03-03T21:15:35.901Z,1.10
2018-03-03T21:20:30.263Z,1.20
2018-03-03T21:25:25.366Z,1.20
2018-03-03T21:30:20.660Z,1.20
2018-03-03T21:35:14.968Z,1.20
2018-03-03T21:40:09.421Z,1.30
2018-03-03T21:45:03.759Z,1.30
2018-03-03T21:49:58.066Z,1.30
2018-03-03T21:54:52.558Z,1.30
2018-03-03T21:59:46.935Z,1.40
2018-03-03T22:04:41.257Z,1.50
2018-03-03T22:09:35.664Z,1.50
2018-03-03T22:14:30.963Z,1.50
2018-03-03T22:19:25.702Z,1.60
2018-03-03T22:24:20.234Z,1.60
2018-03-03T22:29:14.849Z,1.60
2018-03-03T22:34:10.160Z,1.70
2018-03-03T22:39:04.050Z,1.70
2018-03-03T22:43:58.353Z,1.90
2018-03-03T22:48:52.645Z,1.90
2018-03-03T22:53:47.038Z,1.90
2018-03-03T22:58:41.353Z,1.90
2018-03-03T23:03:35.665Z,1.90
2018-03-03T23:08:29.979Z,1.90
2018-03-03T23:13:25.044Z,1.90
2018-03-03T23:18:19.616Z,1.90
2018-03-03T23:23:15.066Z,2.00
2018-03-03T23:28:09.562Z,2.00
2018-03-03T23:33:04.650Z,2.10
2018-03-03T23:37:59.908Z,2.10
2018-03-03T23:42:55.004Z,2.10
2018-03-03T23:47:50.421Z,2.10
2018-03-03T23:52:44.796Z,2.10
2018-03-03T23:57:38.941Z,2.10
